createdAt,value
2022-10-03T00:02:52.921Z,15.70
2022-10-03T00:05:56.233Z,15.77
2022-10-03T00:08:43.880Z,15.76
2022-10-03T00:11:24.694Z,15.84
2022-10-03T00:14:00.511Z,15.86
2022-10-03T00:16:54.708Z,15.87
2022-10-03T00:19:43.187Z,15.90
2022-10-03T00:22:28.493Z,15.92
2022-10-03T00:25:32.497Z,15.81
2022-10-03T00:28:28.698Z,15.73
2022-10-03T00:31:01.935Z,15.71
2022-10-03T00:34:16.932Z,15.64
2022-10-03T00:37:05.485Z,15.60
2022-10-03T00:39:45.600Z,15.55
2022-10-03T00:42:17.927Z,15.57
2022-10-03T00:45:29.805Z,15.49
2022-10-03T00:48:28.903Z,15.46
2022-10-03T00:51:10.721Z,15.44
2022-10-03T00:53:58.745Z,15.43
2022-10-03T00:56:57.225Z,15.37
2022-10-03T00:59:39.405Z,15.28
2022-10-03T01:02:47.552Z,15.36
2022-10-03T01:05:17.169Z,15.42
2022-10-03T01:08:10.422Z,15.41
2022-10-03T01:10:44.596Z,15.27
2022-10-03T01:13:35.412Z,15.28
2022-10-03T01:16:26.920Z,15.30
2022-10-03T01:19:05.878Z,15.36
2022-10-03T01:21:44.030Z,15.34
2022-10-03T01:24:22.851Z,15.38
2022-10-03T01:26:58.140Z,15.33
2022-10-03T01:30:02.465Z,15.22
2022-10-03T01:32:33.160Z,15.13
2022-10-03T01:35:10.175Z,15.13
2022-10-03T01:37:51.238Z,15.09
2022-10-03T01:40:35.833Z,15.08
2022-10-03T01:43:20.100Z,15.00
2022-10-03T01:46:07.134Z,15.03
2022-10-03T01:49:01.391Z,14.95
2022-10-03T01:51:47.317Z,14.90
2022-10-03T01:54:21.725Z,14.94
2022-10-03T01:57:01.571Z,14.96
2022-10-03T01:59:50.204Z,14.93
2022-10-03T02:02:39.898Z,14.96
2022-10-03T02:05:15.164Z,15.03
2022-10-03T02:07:55.218Z,15.05
2022-10-03T02:10:45.659Z,14.99
2022-10-03T02:13:15.115Z,15.01
2022-10-03T02:15:54.495Z,15.06
2022-10-03T02:18:29.350Z,14.98
2022-10-03T02:21:13.986Z,14.91
2022-10-03T02:23:45.248Z,14.73
2022-10-03T02:26:46.249Z,14.68
2022-10-03T02:29:37.441Z,14.64
2022-10-03T02:32:38.952Z,14.42
2022-10-03T02:35:15.024Z,14.37
2022-10-03T02:38:10.045Z,14.30
2022-10-03T02:40:47.436Z,14.24
2022-10-03T02:43:33.105Z,14.16
2022-10-03T02:46:06.302Z,14.16
2022-10-03T02:49:01.001Z,14.16
2022-10-03T02:51:46.396Z,14.14
2022-10-03T02:54:18.918Z,14.15
2022-10-03T02:57:04.265Z,14.11
2022-10-03T03:00:04.610Z,14.11
2022-10-03T03:02:58.859Z,14.11
2022-10-03T03:05:40.488Z,14.08
2022-10-03T03:08:36.805Z,14.01
2022-10-03T03:11:16.244Z,14.06
2022-10-03T03:14:01.345Z,14.08
2022-10-03T03:17:05.104Z,14.06
2022-10-03T03:19:53.406Z,14.07
2022-10-03T03:23:17.533Z,13.99
2022-10-03T03:25:50.616Z,14.03
2022-10-03T03:28:55.459Z,14.07
2022-10-03T03:31:46.884Z,14.08
2022-10-03T03:34:25.472Z,14.01
2022-10-03T03:36:58.259Z,14.05
2022-10-03T03:39:57.205Z,14.08
2022-10-03T03:43:11.009Z,14.07
2022-10-03T03:45:47.447Z,13.91
2022-10-03T03:48:22.932Z,13.88
2022-10-03T03:51:06.902Z,13.85
2022-10-03T03:53:42.533Z,13.80
2022-10-03T03:56:38.323Z,13.81
2022-10-03T03:59:21.865Z,13.67
2022-10-03T04:01:59.144Z,13.57
2022-10-03T04:04:39.197Z,13.44
2022-10-03T04:07:43.498Z,13.41
2022-10-03T04:10:26.863Z,13.42
2022-10-03T04:13:19.485Z,13.50
2022-10-03T04:15:51.829Z,13.38
2022-10-03T04:18:58.348Z,13.37
2022-10-03T04:22:02.589Z,13.28
2022-10-03T04:24:59.914Z,13.36
2022-10-03T04:27:41.395Z,13.35
2022-10-03T04:30:20.563Z,13.31
2022-10-03T04:32:47.143Z,13.36
2022-10-03T04:35:41.492Z,13.45
2022-10-03T04:38:23.487Z,13.47
2022-10-03T04:41:23.492Z,13.59
2022-10-03T04:44:02.343Z,13.57
2022-10-03T04:46:56.389Z,13.58
2022-10-03T04:49:29.020Z,13.50
2022-10-03T04:52:04.512Z,13.63
2022-10-03T04:54:58.907Z,13.61
2022-10-03T04:57:36.905Z,13.60
2022-10-03T05:00:04.628Z,13.65
2022-10-03T05:02:54.752Z,13.70
2022-10-03T05:05:29.829Z,13.69
2022-10-03T05:08:06.156Z,13.74
2022-10-03T05:11:16.550Z,13.66
2022-10-03T05:13:53.776Z,13.61
2022-10-03T05:16:31.526Z,13.65
2022-10-03T05:19:19.915Z,13.56
2022-10-03T05:21:56.527Z,13.49
2022-10-03T05:25:11.784Z,13.31
2022-10-03T05:28:12.085Z,13.28
2022-10-03T05:30:54.120Z,13.27
2022-10-03T05:33:32.770Z,13.26
2022-10-03T05:36:19.690Z,13.20
2022-10-03T05:39:05.185Z,13.36
2022-10-03T05:41:35.564Z,13.44
2022-10-03T05:44:06.915Z,13.47
2022-10-03T05:46:58.846Z,13.44
2022-10-03T05:49:38.884Z,13.45
2022-10-03T05:52:21.795Z,13.47
2022-10-03T05:55:13.217Z,13.44
2022-10-03T05:57:53.033Z,13.51
2022-10-03T06:00:31.105Z,13.52
2022-10-03T06:03:24.117Z,13.52
2022-10-03T06:06:14.080Z,13.57
2022-10-03T06:08:49.803Z,13.57
2022-10-03T06:11:21.130Z,13.72
2022-10-03T06:13:53.943Z,13.63
2022-10-03T06:16:32.399Z,13.54
2022-10-03T06:19:23.494Z,13.67
2022-10-03T06:22:08.287Z,13.72
2022-10-03T06:24:59.902Z,13.78
2022-10-03T06:27:49.713Z,13.81
2022-10-03T06:30:55.371Z,13.82
2022-10-03T06:33:41.238Z,13.88
2022-10-03T06:36:41.874Z,13.93
2022-10-03T06:39:46.276Z,13.99
2022-10-03T06:42:37.568Z,14.02
2022-10-03T06:45:37.860Z,13.98
2022-10-03T06:48:39.872Z,14.10
2022-10-03T06:51:41.125Z,14.09
2022-10-03T06:54:42.262Z,14.10
2022-10-03T06:57:42.616Z,14.04
2022-10-03T07:00:22.232Z,14.10
2022-10-03T07:03:14.943Z,14.36
2022-10-03T07:06:03.098Z,14.72
2022-10-03T07:09:01.772Z,14.55
2022-10-03T07:11:55.812Z,14.63
2022-10-03T07:14:55.364Z,14.86
2022-10-03T07:17:35.063Z,14.92
2022-10-03T07:20:26.959Z,15.12
2022-10-03T07:23:19.727Z,15.30
2022-10-03T07:25:55.754Z,15.25
2022-10-03T07:28:48.457Z,15.42
2022-10-03T07:31:18.363Z,15.45
2022-10-03T07:34:03.897Z,15.28
2022-10-03T07:36:50.177Z,15.21
2022-10-03T07:39:23.111Z,15.47
2022-10-03T07:42:08.702Z,15.66
2022-10-03T07:44:57.073Z,15.92
2022-10-03T07:47:26.787Z,16.24
2022-10-03T07:50:31.148Z,16.56
2022-10-03T07:53:01.031Z,16.72
2022-10-03T07:55:39.492Z,16.87
2022-10-03T07:58:30.734Z,17.06
2022-10-03T08:01:38.562Z,17.22
2022-10-03T08:04:33.279Z,17.28
2022-10-03T08:07:26.585Z,17.57
2022-10-03T08:09:54.264Z,17.29
2022-10-03T08:12:40.349Z,17.54
2022-10-03T08:15:22.037Z,17.78
2022-10-03T08:18:11.863Z,17.86
2022-10-03T08:20:52.650Z,17.95
2022-10-03T08:23:40.446Z,18.18
2022-10-03T08:26:26.058Z,18.67
2022-10-03T08:29:04.921Z,19.02
2022-10-03T08:31:47.537Z,19.55
2022-10-03T08:34:50.137Z,19.81
2022-10-03T08:37:50.700Z,20.00
2022-10-03T08:40:38.383Z,20.86
2022-10-03T08:43:35.785Z,21.71
2022-10-03T08:46:40.738Z,22.39
2022-10-03T08:49:30.797Z,22.70
2022-10-03T08:52:21.348Z,23.45
2022-10-03T08:54:57.312Z,24.12
2022-10-03T08:57:48.733Z,24.21
2022-10-03T09:00:24.111Z,25.38
2022-10-03T09:03:30.929Z,26.06
2022-10-03T09:06:19.776Z,28.16
2022-10-03T09:09:16.967Z,30.28
2022-10-03T09:12:11.341Z,32.09
2022-10-03T09:15:03.122Z,33.76
2022-10-03T09:17:41.665Z,35.01
2022-10-03T09:20:19.664Z,34.95
2022-10-03T09:22:58.208Z,34.55
2022-10-03T09:25:40.413Z,34.73
2022-10-03T09:28:26.074Z,35.32
2022-10-03T09:31:04.964Z,35.21
2022-10-03T09:33:45.821Z,35.49
2022-10-03T09:36:24.643Z,35.61
2022-10-03T09:39:21.897Z,36.04
2022-10-03T09:42:00.760Z,36.77
2022-10-03T09:44:43.418Z,35.18
2022-10-03T09:47:34.957Z,34.39
2022-10-03T09:50:29.863Z,33.26
2022-10-03T09:53:35.569Z,32.18
2022-10-03T09:56:25.815Z,32.49
2022-10-03T09:59:18.924Z,32.04
2022-10-03T10:01:58.031Z,31.15
2022-10-03T10:05:01.132Z,29.97
2022-10-03T10:07:42.964Z,29.83
2022-10-03T10:10:39.384Z,30.11
2022-10-03T10:13:49.805Z,30.82
2022-10-03T10:16:31.931Z,32.53
2022-10-03T10:19:08.131Z,33.38
2022-10-03T10:21:40.684Z,33.51
2022-10-03T10:24:30.548Z,33.79
2022-10-03T10:27:20.738Z,34.33
2022-10-03T10:30:16.401Z,35.17
2022-10-03T10:33:20.531Z,35.28
2022-10-03T10:36:10.255Z,35.33
2022-10-03T10:39:11.055Z,35.85
2022-10-03T10:41:43.506Z,36.64
2022-10-03T10:44:42.350Z,36.90
2022-10-03T10:47:30.862Z,37.49
2022-10-03T10:50:21.860Z,37.34
2022-10-03T10:53:26.335Z,34.00
2022-10-03T10:56:30.536Z,33.29
2022-10-03T10:59:12.359Z,33.61
2022-10-03T11:02:20.075Z,31.15
2022-10-03T11:05:03.025Z,29.16
2022-10-03T11:07:38.998Z,28.25
2022-10-03T11:10:52.407Z,28.86
2022-10-03T11:13:41.487Z,31.57
2022-10-03T11:16:27.267Z,30.53
2022-10-03T11:19:26.868Z,32.03
2022-10-03T11:21:56.724Z,33.28
2022-10-03T11:25:01.149Z,33.97
2022-10-03T11:27:42.926Z,33.66
2022-10-03T11:30:28.131Z,34.72
2022-10-03T11:33:16.688Z,34.05
2022-10-03T11:35:55.321Z,33.20
2022-10-03T11:38:24.719Z,31.41
2022-10-03T11:41:00.642Z,29.20
2022-10-03T11:43:48.545Z,27.76
2022-10-03T11:46:20.961Z,26.77
2022-10-03T11:48:59.433Z,27.08
2022-10-03T11:51:55.868Z,28.73
2022-10-03T11:54:32.373Z,30.00
2022-10-03T11:57:14.952Z,31.15
2022-10-03T11:59:53.751Z,31.67
2022-10-03T12:02:23.068Z,31.75
2022-10-03T12:05:14.652Z,31.80
2022-10-03T12:08:22.643Z,31.31
2022-10-03T12:10:52.398Z,30.81
2022-10-03T12:13:42.719Z,30.17
2022-10-03T12:16:32.359Z,30.67
2022-10-03T12:19:13.831Z,30.59
2022-10-03T12:22:02.305Z,30.15
2022-10-03T12:24:35.003Z,29.56
2022-10-03T12:27:29.948Z,28.64
2022-10-03T12:30:00.851Z,28.10
2022-10-03T12:32:52.456Z,27.83
2022-10-03T12:35:31.356Z,27.97
2022-10-03T12:38:13.082Z,27.52
2022-10-03T12:40:43.955Z,27.04
2022-10-03T12:43:38.883Z,26.98
2022-10-03T12:46:42.126Z,26.79
2022-10-03T12:49:20.641Z,26.43
2022-10-03T12:51:56.456Z,26.21
2022-10-03T12:54:31.952Z,26.39
2022-10-03T12:57:13.558Z,26.68
2022-10-03T12:59:45.484Z,26.47
2022-10-03T13:02:29.798Z,26.39
2022-10-03T13:05:17.078Z,26.02
2022-10-03T13:07:56.711Z,25.77
2022-10-03T13:10:34.050Z,25.43
2022-10-03T13:13:13.442Z,25.03
2022-10-03T13:16:04.338Z,24.81
2022-10-03T13:18:49.411Z,24.64
2022-10-03T13:21:44.422Z,24.23
2022-10-03T13:25:06.771Z,24.23
2022-10-03T13:27:46.693Z,24.14
2022-10-03T13:30:22.164Z,23.95
2022-10-03T13:33:17.929Z,23.80
2022-10-03T13:35:58.513Z,23.50
2022-10-03T13:38:51.222Z,23.16
2022-10-03T13:41:34.108Z,23.14
2022-10-03T13:44:04.463Z,23.33
2022-10-03T13:46:53.231Z,23.45
2022-10-03T13:49:25.554Z,23.53
2022-10-03T13:52:00.023Z,23.79
2022-10-03T13:54:54.759Z,24.06
2022-10-03T13:57:27.243Z,24.40
2022-10-03T14:00:21.271Z,24.73
2022-10-03T14:03:01.568Z,24.82
2022-10-03T14:05:55.643Z,24.91
2022-10-03T14:08:34.484Z,25.18
2022-10-03T14:11:01.034Z,25.22
2022-10-03T14:13:52.840Z,25.12
2022-10-03T14:16:31.469Z,24.65
2022-10-03T14:19:21.656Z,24.18
2022-10-03T14:21:48.293Z,23.99
2022-10-03T14:27:06.842Z,23.18
2022-10-03T14:29:55.464Z,22.79
2022-10-03T14:32:48.691Z,22.51
2022-10-03T14:35:19.232Z,22.22
2022-10-03T14:37:57.691Z,22.25
2022-10-03T14:40:42.567Z,22.13
2022-10-03T14:43:24.503Z,22.04
2022-10-03T14:45:55.500Z,22.19
2022-10-03T14:48:27.942Z,22.17
2022-10-03T14:51:06.242Z,22.24
2022-10-03T14:53:33.402Z,22.27
2022-10-03T14:56:07.658Z,22.11
2022-10-03T14:58:43.868Z,22.05
2022-10-03T15:01:19.279Z,22.21
2022-10-03T15:04:06.220Z,22.19
2022-10-03T15:06:45.131Z,22.21
2022-10-03T15:09:24.135Z,22.48
2022-10-03T15:12:01.793Z,22.60
2022-10-03T15:14:32.812Z,22.73
2022-10-03T15:17:01.514Z,22.79
2022-10-03T15:19:37.680Z,22.70
2022-10-03T15:22:18.104Z,22.60
2022-10-03T15:24:46.774Z,22.70
2022-10-03T15:27:20.920Z,22.89
2022-10-03T15:29:54.104Z,23.04
2022-10-03T15:32:27.514Z,22.98
2022-10-03T15:35:01.246Z,23.21
2022-10-03T15:37:46.770Z,23.28
2022-10-03T15:40:34.863Z,23.18
2022-10-03T15:43:17.816Z,23.16
2022-10-03T15:45:44.742Z,23.09
2022-10-03T15:48:16.590Z,22.96
2022-10-03T15:50:50.689Z,22.69
2022-10-03T15:53:36.162Z,22.63
2022-10-03T15:56:15.081Z,22.45
2022-10-03T15:58:49.888Z,22.21
2022-10-03T16:01:24.509Z,22.09
2022-10-03T16:03:59.712Z,21.85
2022-10-03T16:07:04.262Z,21.68
2022-10-03T16:09:45.463Z,21.40
2022-10-03T16:12:52.308Z,21.28
2022-10-03T16:15:37.765Z,21.19
2022-10-03T16:18:11.550Z,21.01
2022-10-03T16:20:47.428Z,20.93
2022-10-03T16:23:21.486Z,20.80
2022-10-03T16:25:55.535Z,20.66
2022-10-03T16:28:30.204Z,20.56
2022-10-03T16:31:01.739Z,20.47
2022-10-03T16:33:55.864Z,20.41
2022-10-03T16:36:25.583Z,20.40
2022-10-03T16:38:56.422Z,20.48
2022-10-03T16:41:33.250Z,20.61
2022-10-03T16:44:19.401Z,20.59
2022-10-03T16:46:48.170Z,20.62
2022-10-03T16:49:52.714Z,20.60
2022-10-03T16:52:24.111Z,20.61
2022-10-03T16:55:01.252Z,20.64
2022-10-03T16:57:40.517Z,20.62
2022-10-03T17:00:15.702Z,20.50
2022-10-03T17:02:43.180Z,20.37
2022-10-03T17:05:15.014Z,20.33
2022-10-03T17:08:18.292Z,20.37
2022-10-03T17:10:55.923Z,20.40
2022-10-03T17:13:31.140Z,20.36
2022-10-03T17:16:06.027Z,20.25
2022-10-03T17:18:41.308Z,20.21
2022-10-03T17:21:28.866Z,20.19
2022-10-03T17:24:09.084Z,20.05
2022-10-03T17:26:42.664Z,19.89
2022-10-03T17:29:15.251Z,19.71
2022-10-03T17:31:48.949Z,19.65
2022-10-03T17:34:18.768Z,19.51
2022-10-03T17:36:56.901Z,19.48
2022-10-03T17:39:38.360Z,19.55
2022-10-03T17:42:18.807Z,19.55
2022-10-03T17:45:16.975Z,19.51
2022-10-03T17:47:56.160Z,19.53
2022-10-03T17:50:35.672Z,19.57
2022-10-03T17:53:04.057Z,19.57
2022-10-03T17:55:38.577Z,19.48
2022-10-03T17:58:14.336Z,19.32
2022-10-03T18:00:44.184Z,19.16
2022-10-03T18:03:21.636Z,19.07
2022-10-03T18:05:54.500Z,19.10
2022-10-03T18:08:31.486Z,19.03
2022-10-03T18:11:02.355Z,19.03
2022-10-03T18:13:38.495Z,19.02
2022-10-03T18:16:33.005Z,18.94
2022-10-03T18:19:27.888Z,18.86
2022-10-03T18:22:32.988Z,18.84
2022-10-03T18:26:08.358Z,18.69
2022-10-03T18:28:44.797Z,18.70
2022-10-03T18:31:22.195Z,18.69
2022-10-03T18:34:14.141Z,18.79
2022-10-03T18:36:47.937Z,18.77
2022-10-03T18:39:22.498Z,18.73
2022-10-03T18:41:54.357Z,18.66
2022-10-03T18:44:24.165Z,18.65
2022-10-03T18:47:07.111Z,18.60
2022-10-03T18:49:35.501Z,18.67
2022-10-03T18:52:11.707Z,18.69
2022-10-03T18:54:50.251Z,18.65
2022-10-03T18:57:33.703Z,18.56
2022-10-03T19:00:09.313Z,18.33
2022-10-03T19:02:48.244Z,18.25
2022-10-03T19:05:25.416Z,18.22
2022-10-03T19:08:21.169Z,18.14
2022-10-03T19:11:24.565Z,17.95
2022-10-03T19:13:54.102Z,17.95
2022-10-03T19:16:44.155Z,17.82
2022-10-03T19:19:29.675Z,17.52
2022-10-03T19:22:02.281Z,17.53
2022-10-03T19:24:56.690Z,17.40
2022-10-03T19:27:21.445Z,17.46
2022-10-03T19:29:51.028Z,17.39
2022-10-03T19:32:42.967Z,17.23
2022-10-03T19:35:12.716Z,17.08
2022-10-03T19:37:44.444Z,16.93
2022-10-03T19:40:32.986Z,17.12
2022-10-03T19:43:26.926Z,17.04
2022-10-03T19:46:13.083Z,17.05
2022-10-03T19:48:56.067Z,17.05
2022-10-03T19:51:26.001Z,17.17
2022-10-03T19:53:55.427Z,17.02
2022-10-03T19:56:24.729Z,16.95
2022-10-03T19:59:03.419Z,16.82
2022-10-03T20:01:50.427Z,16.67
2022-10-03T20:04:37.163Z,16.68
2022-10-03T20:07:15.618Z,16.61
2022-10-03T20:09:55.925Z,16.65
2022-10-03T20:12:27.934Z,16.76
2022-10-03T20:15:02.018Z,16.77
2022-10-03T20:17:30.500Z,16.85
2022-10-03T20:20:18.845Z,16.93
2022-10-03T20:22:46.122Z,16.87
2022-10-03T20:25:30.949Z,16.81
2022-10-03T20:28:01.089Z,16.89
2022-10-03T20:30:48.779Z,16.88
2022-10-03T20:33:34.761Z,16.85
2022-10-03T20:36:04.225Z,16.79
2022-10-03T20:38:30.786Z,16.78
2022-10-03T20:41:04.048Z,16.71
2022-10-03T20:43:41.917Z,16.73
2022-10-03T20:46:31.461Z,16.64
2022-10-03T20:49:30.627Z,16.61
2022-10-03T20:52:00.657Z,16.48
2022-10-03T20:54:47.857Z,16.39
2022-10-03T20:57:19.672Z,16.38
2022-10-03T20:59:56.043Z,16.25
2022-10-03T21:02:41.104Z,16.30
2022-10-03T21:05:35.360Z,16.31
2022-10-03T21:08:05.310Z,16.36
2022-10-03T21:10:36.570Z,16.29
2022-10-03T21:13:08.684Z,16.31
2022-10-03T21:15:59.467Z,16.34
2022-10-03T21:18:40.371Z,16.37
2022-10-03T21:21:42.145Z,16.31
2022-10-03T21:24:12.671Z,16.20
2022-10-03T21:27:01.425Z,16.20
2022-10-03T21:29:31.684Z,16.19
2022-10-03T21:32:25.391Z,16.19
2022-10-03T21:35:10.758Z,16.23
2022-10-03T21:37:50.584Z,16.22
2022-10-03T21:40:50.293Z,16.17
2022-10-03T21:43:52.469Z,16.09
2022-10-03T21:46:43.226Z,16.09
2022-10-03T21:49:37.104Z,16.06
2022-10-03T21:52:09.605Z,16.04
2022-10-03T21:54:57.932Z,16.07
2022-10-03T21:57:41.854Z,16.10
2022-10-03T22:00:17.996Z,16.12
2022-10-03T22:02:56.783Z,16.16
2022-10-03T22:05:48.687Z,16.12
2022-10-03T22:08:23.277Z,16.06
2022-10-03T22:10:58.872Z,15.96
2022-10-03T22:13:30.361Z,15.90
2022-10-03T22:16:08.767Z,15.78
2022-10-03T22:19:01.623Z,15.78
2022-10-03T22:21:41.081Z,15.72
2022-10-03T22:24:29.280Z,15.67
2022-10-03T22:27:24.245Z,15.68
2022-10-03T22:29:50.808Z,15.65
2022-10-03T22:32:38.305Z,15.65
2022-10-03T22:35:16.625Z,15.63
2022-10-03T22:37:43.302Z,15.61
2022-10-03T22:40:10.437Z,15.65
2022-10-03T22:42:47.620Z,15.60
2022-10-03T22:45:18.876Z,15.59
2022-10-03T22:47:54.279Z,15.53
2022-10-03T22:50:28.152Z,15.51
2022-10-03T22:52:56.149Z,15.56
2022-10-03T22:55:25.669Z,15.49
2022-10-03T22:57:55.148Z,15.52
2022-10-03T23:00:24.806Z,15.45
2022-10-03T23:03:10.512Z,15.42
2022-10-03T23:05:58.871Z,15.34
2022-10-03T23:09:04.074Z,15.25
2022-10-03T23:11:33.635Z,15.24
2022-10-03T23:14:17.315Z,15.23
2022-10-03T23:17:01.076Z,15.17
2022-10-03T23:20:01.421Z,15.21
2022-10-03T23:22:31.058Z,15.21
2022-10-03T23:25:16.871Z,15.14
2022-10-03T23:28:28.865Z,15.12
2022-10-03T23:30:55.752Z,15.19
2022-10-03T23:33:32.402Z,15.13
2022-10-03T23:36:21.383Z,15.11
2022-10-03T23:38:47.936Z,15.04
2022-10-03T23:41:43.121Z,14.98
2022-10-03T23:44:58.157Z,14.94
2022-10-03T23:47:32.603Z,14.86
2022-10-03T23:50:03.724Z,14.81
2022-10-03T23:52:36.412Z,14.77
2022-10-03T23:55:06.775Z,14.70
2022-10-03T23:57:41.429Z,14.65
